Time;durP1;ratioP1;P1;durP2;ratioP2;P2;SDS_P1;SDS_P2;PMS_P1;PMS_P2;Temp;Humidity;BMP_temperature;BMP_pressure;BME280_temperature;BME280_humidity;BME280_pressure;Samples;Min_cycle;Max_cycle;Signal;HPM_P1;HPM_P2
2022/01/03 00:01:25;;;;;;;5.97;1.60;;;;;;;8.20;100.00;96192.53;5029309;28;20527;-81
2022/01/03 00:03:51;;;;;;;4.57;1.80;;;;;;;8.29;100.00;96182.97;5016716;28;20041;-82
2022/01/03 00:06:20;;;;;;;5.03;1.37;;;;;;;8.32;100.00;96193.16;5015814;28;20103;-82
2022/01/03 00:08:45;;;;;;;7.67;2.10;;;;;;;8.31;100.00;96196.75;5045870;28;20033;-81
2022/01/03 00:11:15;;;;;;;6.97;1.80;;;;;;;8.27;100.00;96188.34;5032983;28;20033;-81
2022/01/03 00:13:43;;;;;;;4.27;1.47;;;;;;;8.41;100.00;96200.16;5036431;28;20029;-81
2022/01/03 00:16:10;;;;;;;6.07;1.80;;;;;;;8.43;100.00;96198.22;5032827;28;20167;-82
2022/01/03 00:18:35;;;;;;;8.00;1.70;;;;;;;8.44;100.00;96200.69;5013391;28;20172;-81
2022/01/03 00:21:01;;;;;;;6.00;1.80;;;;;;;8.36;100.00;96192.72;5003220;28;20088;-81
2022/01/03 00:23:32;;;;;;;10.17;2.47;;;;;;;8.48;100.00;96199.44;5031077;28;20408;-81
2022/01/03 00:26:02;;;;;;;3.23;1.20;;;;;;;8.40;100.00;96195.91;5038447;28;20033;-82
2022/01/03 00:28:36;;;;;;;5.67;1.37;;;;;;;8.38;100.00;96193.41;5015144;28;20045;-82
2022/01/03 00:31:04;;;;;;;4.47;1.50;;;;;;;8.43;100.00;96174.66;5015968;28;20533;-82
2022/01/03 00:33:31;;;;;;;5.57;1.50;;;;;;;8.38;100.00;96179.50;5039336;28;20029;-81
2022/01/03 00:36:03;;;;;;;10.30;4.63;;;;;;;8.35;100.00;96167.50;5027111;28;20040;-81
2022/01/03 00:38:33;;;;;;;4.73;1.37;;;;;;;8.37;100.00;96159.47;5007420;28;20068;-81
2022/01/03 00:40:59;;;;;;;5.87;1.70;;;;;;;8.37;100.00;96170.78;5030472;28;20037;-80
2022/01/03 00:43:27;;;;;;;7.03;1.80;;;;;;;8.40;100.00;96160.03;5025476;28;20029;-81
2022/01/03 00:45:54;;;;;;;4.60;1.97;;;;;;;8.36;100.00;96163.06;5028523;28;20037;-81
2022/01/03 00:48:23;;;;;;;5.30;1.97;;;;;;;8.43;100.00;96165.00;5013820;28;20594;-80
2022/01/03 00:50:50;;;;;;;5.23;1.50;;;;;;;8.38;100.00;96161.16;5016866;28;20502;-80
2022/01/03 00:53:16;;;;;;;5.83;1.50;;;;;;;8.35;100.00;96153.56;5006705;28;20026;-81
2022/01/03 00:56:04;;;;;;;5.67;1.53;;;;;;;8.36;100.00;96142.94;5036230;28;20466;-80
2022/01/03 00:58:36;;;;;;;4.67;1.70;;;;;;;8.41;100.00;96155.63;5030712;28;20041;-81
2022/01/03 01:01:07;;;;;;;5.20;1.50;;;;;;;8.36;100.00;96152.59;5028310;28;20072;-80
2022/01/03 01:03:36;;;;;;;3.90;1.40;;;;;;;8.38;100.00;96154.09;4966914;28;20463;-80
2022/01/03 01:06:10;;;;;;;3.93;1.50;;;;;;;8.47;100.00;96161.09;5042088;28;20289;-80
2022/01/03 01:08:37;;;;;;;5.50;1.23;;;;;;;8.46;100.00;96174.34;5012308;28;20103;-81
2022/01/03 01:11:05;;;;;;;5.63;1.27;;;;;;;8.53;100.00;96187.69;5028693;28;20033;-80
2022/01/03 01:13:36;;;;;;;4.70;1.17;;;;;;;8.55;100.00;96190.97;5030228;28;20029;-80
2022/01/03 01:16:07;;;;;;;3.70;1.10;;;;;;;8.46;100.00;96184.84;5035061;28;20517;-82
2022/01/03 01:18:40;;;;;;;5.97;1.40;;;;;;;8.45;100.00;96188.41;5012555;28;20359;-81
2022/01/03 01:21:06;;;;;;;5.30;1.80;;;;;;;8.38;100.00;96190.78;5035784;28;20037;-81
2022/01/03 01:23:33;;;;;;;4.00;1.20;;;;;;;8.50;100.00;96192.25;5027340;28;20040;-81
2022/01/03 01:28:44;;;;;;;6.77;2.70;;;;;;;8.43;100.00;96191.19;5008146;28;20112;-81
2022/01/03 01:31:16;;;;;;;5.13;1.60;;;;;;;8.47;100.00;96192.53;4982703;28;20052;-81
2022/01/03 01:33:45;;;;;;;3.77;1.20;;;;;;;8.45;100.00;96198.91;5042812;28;20034;-81
2022/01/03 01:36:14;;;;;;;7.90;1.67;;;;;;;8.43;100.00;96193.00;5040741;28;20699;-80
2022/01/03 01:38:42;;;;;;;4.80;1.40;;;;;;;8.45;100.00;96183.16;5023560;28;20799;-81
2022/01/03 01:41:11;;;;;;;6.53;1.37;;;;;;;8.37;100.00;96190.91;5003065;28;20183;-81
2022/01/03 01:43:49;;;;;;;5.30;1.37;;;;;;;8.35;100.00;96188.47;5008396;28;20026;-81
2022/01/03 01:46:26;;;;;;;5.97;1.80;;;;;;;8.22;100.00;96196.66;5022066;28;20037;-81
2022/01/03 01:49:05;;;;;;;4.03;1.23;;;;;;;8.23;100.00;96205.34;5031106;28;20186;-81
2022/01/03 01:51:36;;;;;;;4.97;1.40;;;;;;;8.25;100.00;96204.22;5042097;28;20037;-81
2022/01/03 01:58:13;;;;;;;4.03;1.10;;;;;;;8.17;100.00;96196.25;5029257;28;20121;-81
2022/01/03 02:00:49;;;;;;;4.20;1.20;;;;;;;8.22;100.00;96196.66;5018751;28;20127;-81
2022/01/03 02:03:45;;;;;;;4.30;1.10;;;;;;;8.33;100.00;96197.44;5030260;28;20060;-81
2022/01/03 02:06:20;;;;;;;4.87;1.37;;;;;;;8.43;100.00;96203.47;5015389;28;20041;-81
2022/01/03 02:09:18;;;;;;;6.73;1.30;;;;;;;8.47;99.58;96204.81;5027081;28;20033;-80
2022/01/03 02:11:55;;;;;;;6.53;1.60;;;;;;;8.40;100.00;96204.59;5000297;28;20084;-81
2022/01/03 02:14:26;;;;;;;4.57;1.20;;;;;;;8.49;99.50;96211.56;5043144;28;20052;-80
2022/01/03 02:16:55;;;;;;;6.03;1.57;;;;;;;8.57;98.08;96202.97;5027042;28;20037;-80
2022/01/03 02:19:25;;;;;;;6.77;1.70;;;;;;;8.59;97.44;96202.84;5030904;28;20088;-81
2022/01/03 02:21:51;;;;;;;6.20;1.23;;;;;;;8.59;97.07;96211.53;5042305;28;20029;-81
2022/01/03 02:24:22;;;;;;;7.37;1.47;;;;;;;8.69;96.26;96212.28;5038031;28;20036;-81
2022/01/03 02:26:49;;;;;;;6.13;1.30;;;;;;;8.70;95.70;96211.31;5038866;28;20029;-80
2022/01/03 02:29:14;;;;;;;5.40;1.37;;;;;;;8.79;94.73;96208.78;5029654;28;20044;-81
2022/01/03 02:31:40;;;;;;;3.30;1.00;;;;;;;8.81;94.25;96214.69;5023285;28;20029;-80
2022/01/03 02:34:07;;;;;;;2.67;0.83;;;;;;;8.71;95.28;96199.84;5048445;28;20435;-80
2022/01/03 02:36:35;;;;;;;7.20;1.40;;;;;;;8.66;95.62;96215.19;5033748;28;20601;-81
2022/01/03 02:39:03;;;;;;;6.83;1.57;;;;;;;8.60;96.50;96215.78;5032659;28;20082;-81
2022/01/03 02:41:29;;;;;;;5.73;1.70;;;;;;;8.70;95.48;96210.47;5001427;28;20037;-81
2022/01/03 02:43:58;;;;;;;6.40;1.63;;;;;;;8.66;95.92;96219.63;5044588;28;20119;-81
2022/01/03 02:46:23;;;;;;;8.50;1.17;;;;;;;8.70;95.15;96216.53;5042918;28;20167;-81
2022/01/03 02:48:49;;;;;;;6.80;1.23;;;;;;;8.61;95.98;96214.81;5033066;28;20040;-80
2022/01/03 02:51:15;;;;;;;4.73;1.10;;;;;;;8.66;95.27;96217.81;4997119;28;20033;-81
2022/01/03 02:53:42;;;;;;;5.07;1.20;;;;;;;8.71;94.92;96225.22;5030093;28;20029;-81
2022/01/03 02:56:12;;;;;;;2.73;0.80;;;;;;;8.73;94.60;96224.13;5013170;28;20128;-81
2022/01/03 02:58:39;;;;;;;3.87;1.07;;;;;;;8.80;93.88;96239.25;5021512;28;20030;-81
2022/01/03 03:01:05;;;;;;;5.33;1.40;;;;;;;8.80;93.61;96234.84;5030234;28;20045;-80
2022/01/03 03:03:39;;;;;;;8.20;1.70;;;;;;;8.83;94.01;96225.84;5015622;28;20449;-81
2022/01/03 03:06:06;;;;;;;5.53;1.37;;;;;;;8.86;93.69;96217.69;5038688;28;20049;-81
2022/01/03 03:08:33;;;;;;;4.40;1.07;;;;;;;8.92;92.72;96233.66;5035822;28;20040;-80
2022/01/03 03:10:59;;;;;;;3.97;1.13;;;;;;;8.85;93.59;96237.00;5043020;28;20029;-80
2022/01/03 03:13:25;;;;;;;6.40;1.37;;;;;;;8.78;94.58;96234.16;5022963;28;20107;-81
2022/01/03 03:15:51;;;;;;;8.37;1.60;;;;;;;8.87;93.93;96228.03;5007620;28;20026;-81
2022/01/03 03:18:19;;;;;;;7.30;1.50;;;;;;;8.81;94.46;96235.66;5015975;28;20033;-81
2022/01/03 03:20:46;;;;;;;5.10;1.03;;;;;;;8.76;94.91;96236.13;5034361;28;20035;-81
2022/01/03 03:23:13;;;;;;;6.37;1.17;;;;;;;8.82;95.32;96234.69;5028648;28;20447;-81
2022/01/03 03:25:41;;;;;;;4.03;0.97;;;;;;;8.84;94.92;96235.38;5037684;28;20514;-80
2022/01/03 03:28:15;;;;;;;5.57;1.00;;;;;;;8.84;94.93;96248.47;5028341;28;20021;-81
2022/01/03 03:30:44;;;;;;;3.60;0.97;;;;;;;8.79;95.61;96248.94;5034460;28;20091;-81
2022/01/03 03:33:15;;;;;;;;;;;;;;;8.80;95.08;96247.94;5032456;28;20290;-81
2022/01/03 03:35:50;;;;;;;4.77;1.20;;;;;;;8.72;96.14;96248.69;5056715;28;19913;-82
2022/01/03 03:38:25;;;;;;;3.17;1.20;;;;;;;8.79;95.64;96235.00;5059099;28;20025;-81
2022/01/03 03:40:53;;;;;;;5.50;1.23;;;;;;;8.80;95.70;96247.13;5016605;28;20025;-81
2022/01/03 03:43:20;;;;;;;6.83;2.00;;;;;;;8.78;95.91;96242.00;5015187;28;20029;-81
2022/01/03 03:45:48;;;;;;;4.00;0.90;;;;;;;8.78;95.53;96242.00;5021383;28;20061;-81
2022/01/03 03:48:16;;;;;;;4.30;1.03;;;;;;;8.76;96.41;96253.66;5037616;28;20104;-81
2022/01/03 03:50:42;;;;;;;5.03;1.40;;;;;;;8.76;96.42;96254.47;5038441;28;20120;-80
2022/01/03 03:53:08;;;;;;;6.17;1.43;;;;;;;8.78;96.42;96243.81;5026159;28;20033;-81
2022/01/03 03:55:34;;;;;;;6.53;2.00;;;;;;;8.69;96.96;96238.50;5031207;28;20442;-81
2022/01/03 03:58:03;;;;;;;5.93;1.27;;;;;;;8.64;97.95;96256.44;5022292;28;20057;-81
2022/01/03 04:00:31;;;;;;;4.83;1.37;;;;;;;8.63;98.18;96243.50;5000708;28;20033;-81
2022/01/03 04:03:00;;;;;;;11.27;1.70;;;;;;;8.55;99.73;96244.25;5021274;28;20145;-81
2022/01/03 04:05:26;;;;;;;5.53;1.93;;;;;;;8.54;99.60;96244.38;5028507;28;20123;-81
2022/01/03 04:07:52;;;;;;;4.63;1.17;;;;;;;8.61;98.95;96241.00;5013070;28;20033;-81
2022/01/03 04:10:24;;;;;;;6.27;1.30;;;;;;;8.54;99.83;96247.81;5037098;28;20124;-80
2022/01/03 04:12:50;;;;;;;5.83;1.23;;;;;;;8.60;99.23;96247.25;5027804;28;20116;-80
2022/01/03 04:15:17;;;;;;;5.33;1.60;;;;;;;8.50;100.00;96249.91;5013272;28;20040;-80
2022/01/03 04:17:45;;;;;;;5.03;1.20;;;;;;;8.50;100.00;96254.31;5003730;28;20112;-81
2022/01/03 04:20:17;;;;;;;6.80;1.70;;;;;;;8.55;100.00;96249.50;4990757;28;20095;-80
2022/01/03 04:22:44;;;;;;;7.90;1.87;;;;;;;8.46;100.00;96247.75;5039830;28;20182;-80
2022/01/03 04:25:11;;;;;;;8.07;1.17;;;;;;;8.57;100.00;96247.53;5028547;28;20041;-80
2022/01/03 04:27:37;;;;;;;4.77;1.20;;;;;;;8.50;100.00;96239.41;5030213;28;20742;-81
2022/01/03 04:30:04;;;;;;;4.77;1.83;;;;;;;8.52;100.00;96252.41;5000164;28;20033;-80
2022/01/03 04:32:30;;;;;;;6.37;1.70;;;;;;;8.48;100.00;96240.53;5012214;28;20025;-81
2022/01/03 04:34:56;;;;;;;5.30;1.07;;;;;;;8.47;100.00;96244.13;5019351;28;20479;-80
2022/01/03 04:37:22;;;;;;;4.57;1.20;;;;;;;8.46;100.00;96237.25;5035661;28;20022;-81
2022/01/03 04:39:48;;;;;;;6.67;1.33;;;;;;;8.47;100.00;96246.75;5035102;28;20049;-81
2022/01/03 04:42:14;;;;;;;6.77;1.80;;;;;;;8.46;100.00;96242.50;5028450;28;20037;-80
2022/01/03 04:44:39;;;;;;;6.27;2.90;;;;;;;8.41;100.00;96244.72;5031723;28;20027;-81
2022/01/03 04:47:06;;;;;;;3.50;1.17;;;;;;;8.36;100.00;96225.97;5036376;28;20423;-81
2022/01/03 04:49:32;;;;;;;5.13;1.37;;;;;;;8.36;100.00;96231.22;5025588;28;20953;-82
2022/01/03 04:51:58;;;;;;;7.67;1.20;;;;;;;8.32;100.00;96229.84;5009814;28;20030;-80
2022/01/03 04:54:24;;;;;;;6.00;1.10;;;;;;;8.29;100.00;96235.38;5010021;28;20508;-79
2022/01/03 04:56:50;;;;;;;5.83;1.40;;;;;;;8.30;100.00;96237.03;5010454;28;20040;-81
2022/01/03 04:59:17;;;;;;;5.27;1.77;;;;;;;8.27;100.00;96232.88;5029675;28;20040;-81
2022/01/03 05:01:43;;;;;;;5.37;1.27;;;;;;;8.26;100.00;96221.59;5037571;28;20479;-81
2022/01/03 05:04:09;;;;;;;6.83;1.13;;;;;;;8.22;100.00;96232.50;5035702;28;20052;-80
2022/01/03 05:06:35;;;;;;;5.43;1.53;;;;;;;8.18;100.00;96241.59;4996975;28;20104;-80
2022/01/03 05:09:01;;;;;;;8.03;1.00;;;;;;;8.13;100.00;96251.69;5033664;28;20037;-79
2022/01/03 05:11:26;;;;;;;10.83;1.47;;;;;;;7.99;100.00;96256.44;5011214;28;20033;-80
2022/01/03 05:13:54;;;;;;;5.97;1.73;;;;;;;7.87;100.00;96247.09;5031670;28;20036;-79
2022/01/03 05:16:20;;;;;;;7.87;1.50;;;;;;;7.89;100.00;96241.72;5027632;28;20041;-79
2022/01/03 05:18:47;;;;;;;6.30;1.10;;;;;;;7.83;100.00;96244.91;5016969;28;20033;-80
2022/01/03 05:21:13;;;;;;;6.27;1.37;;;;;;;7.88;100.00;96234.81;5025806;28;20099;-79
2022/01/03 05:23:42;;;;;;;5.00;1.27;;;;;;;7.84;100.00;96241.31;5011245;28;20026;-79
2022/01/03 05:26:09;;;;;;;4.57;1.43;;;;;;;7.77;100.00;96252.34;5027490;28;20462;-80
2022/01/03 05:28:35;;;;;;;10.27;3.07;;;;;;;7.81;100.00;96263.34;5015812;28;20048;-80
2022/01/03 05:31:01;;;;;;;6.87;1.40;;;;;;;7.79;100.00;96270.53;5038455;28;20037;-80
2022/01/03 05:33:29;;;;;;;7.83;1.77;;;;;;;7.84;100.00;96268.31;5027620;28;20256;-80
2022/01/03 05:35:54;;;;;;;7.17;1.73;;;;;;;7.77;100.00;96282.94;5010375;28;20448;-80
2022/01/03 05:38:20;;;;;;;6.50;1.20;;;;;;;7.75;100.00;96288.31;4993939;28;20025;-80
2022/01/03 05:40:46;;;;;;;5.90;1.40;;;;;;;7.61;100.00;96293.97;5029662;28;20029;-80
2022/01/03 05:43:12;;;;;;;6.30;1.33;;;;;;;7.49;100.00;96295.09;4997183;28;20030;-79
2022/01/03 05:45:38;;;;;;;7.77;2.33;;;;;;;7.34;100.00;96302.53;5029021;28;20057;-79
2022/01/03 05:48:07;;;;;;;7.27;2.33;;;;;;;7.17;100.00;96295.38;4994880;28;20405;-79
2022/01/03 05:50:33;;;;;;;5.80;1.00;;;;;;;7.08;100.00;96289.19;5034433;28;20092;-79
2022/01/03 05:53:00;;;;;;;6.33;1.00;;;;;;;6.94;100.00;96289.56;5025600;28;20021;-80
2022/01/03 05:55:27;;;;;;;6.03;1.23;;;;;;;6.87;100.00;96284.03;5008875;28;20042;-80
2022/01/03 05:57:54;;;;;;;4.13;0.97;;;;;;;6.73;100.00;96294.88;5001713;28;20484;-80
2022/01/03 06:00:26;;;;;;;4.10;0.90;;;;;;;6.63;100.00;96297.47;5032675;28;20037;-79
2022/01/03 06:02:56;;;;;;;4.73;0.80;;;;;;;6.62;100.00;96298.44;5011359;28;20088;-88
2022/01/03 06:06:05;;;;;;;6.93;1.53;;;;;;;6.58;100.00;96310.94;5005002;28;20041;-87
2022/01/03 06:08:12;;;;;;;3.67;0.80;;;;;;;6.53;100.00;96296.59;5012371;28;20036;-88
2022/01/03 06:10:44;;;;;;;3.63;0.95;;;;;;;6.46;100.00;96305.94;5036118;28;20036;-89
2022/01/03 06:13:42;;;;;;;6.47;0.93;;;;;;;6.50;100.00;96302.09;5030814;28;20041;-88
2022/01/03 06:16:08;;;;;;;2.23;0.63;;;;;;;6.48;100.00;96296.19;5027177;28;20468;-88
2022/01/03 06:18:34;;;;;;;5.53;0.90;;;;;;;6.47;100.00;96290.16;5028141;28;20044;-88
2022/01/03 06:21:06;;;;;;;5.00;0.87;;;;;;;6.42;100.00;96286.28;5024056;28;20116;-89
2022/01/03 06:23:36;;;;;;;6.00;1.07;;;;;;;6.47;100.00;96286.69;5025155;28;20043;-89
2022/01/03 06:26:05;;;;;;;3.00;0.77;;;;;;;6.49;100.00;96284.78;5026427;28;20091;-88
2022/01/03 06:28:46;;;;;;;7.73;1.00;;;;;;;6.48;100.00;96283.13;5032005;28;20045;-88
2022/01/03 06:31:15;;;;;;;7.80;1.13;;;;;;;6.40;100.00;96282.94;5009956;28;20033;-89
2022/01/03 06:33:42;;;;;;;5.17;1.20;;;;;;;6.36;100.00;96285.00;5034951;28;20510;-89
2022/01/03 06:36:09;;;;;;;7.90;1.23;;;;;;;6.28;100.00;96272.63;5019093;28;20745;-88
2022/01/03 06:38:35;;;;;;;5.50;0.97;;;;;;;6.29;100.00;96274.25;5030684;28;20376;-89
2022/01/03 06:41:07;;;;;;;6.63;1.30;;;;;;;6.32;100.00;96276.59;5031741;28;20037;-89
2022/01/03 06:43:33;;;;;;;11.70;1.93;;;;;;;6.36;100.00;96285.81;5017971;28;20041;-88
2022/01/03 06:45:58;;;;;;;4.97;1.00;;;;;;;6.41;100.00;96287.25;5023307;28;20030;-89
2022/01/03 06:48:24;;;;;;;7.70;1.03;;;;;;;6.41;100.00;96282.00;5030763;28;20064;-89
2022/01/03 06:50:50;;;;;;;6.60;1.10;;;;;;;6.47;100.00;96273.63;5033538;28;20368;-88
2022/01/03 06:53:16;;;;;;;11.93;4.80;;;;;;;6.45;100.00;96276.38;5042783;28;20126;-88
2022/01/03 06:55:42;;;;;;;6.73;2.13;;;;;;;6.40;100.00;96273.31;5023707;28;20037;-89
2022/01/03 06:58:08;;;;;;;9.13;2.37;;;;;;;6.42;100.00;96279.25;5036123;28;20542;-88
2022/01/03 07:00:34;;;;;;;8.13;1.60;;;;;;;6.45;100.00;96279.00;5034951;28;20021;-89
2022/01/03 07:02:59;;;;;;;4.50;1.00;;;;;;;6.44;100.00;96277.34;5035637;28;20036;-89
2022/01/03 07:05:27;;;;;;;6.53;1.53;;;;;;;6.46;100.00;96279.81;5029430;28;20030;-89
2022/01/03 07:07:56;;;;;;;8.23;1.97;;;;;;;6.42;100.00;96283.66;5020951;28;20128;-89
2022/01/03 07:10:22;;;;;;;8.23;1.30;;;;;;;6.38;100.00;96283.91;5040073;28;20199;-89
2022/01/03 07:12:52;;;;;;;5.83;1.40;;;;;;;6.50;100.00;96289.03;5031564;28;20524;-89
2022/01/03 07:20:47;;;;;;;7.07;1.27;;;;;;;6.36;100.00;96293.66;5030261;28;20036;-87
2022/01/03 07:23:13;;;;;;;7.27;1.30;;;;;;;6.37;100.00;96291.88;5036409;28;20037;-87
2022/01/03 07:25:42;;;;;;;6.37;1.50;;;;;;;6.38;100.00;96289.16;5033756;28;20091;-88
2022/01/03 07:28:12;;;;;;;11.83;1.80;;;;;;;6.47;100.00;96291.91;5000324;28;20053;-88
2022/01/03 07:30:38;;;;;;;10.20;2.27;;;;;;;6.44;100.00;96292.16;5032457;28;20044;-88
2022/01/03 07:33:08;;;;;;;9.33;1.50;;;;;;;6.38;100.00;96283.91;5027248;28;20026;-88
2022/01/03 07:35:35;;;;;;;6.00;1.50;;;;;;;6.42;100.00;96288.88;5001902;28;20040;-87
2022/01/03 07:38:05;;;;;;;6.93;2.13;;;;;;;6.39;100.00;96292.56;5036173;28;20039;-88
2022/01/03 07:40:40;;;;;;;10.53;1.53;;;;;;;6.42;100.00;96301.94;5015524;28;20037;-87
2022/01/03 07:43:06;;;;;;;9.30;1.60;;;;;;;6.43;100.00;96291.34;5038554;28;20030;-88
2022/01/03 07:45:32;;;;;;;7.13;1.20;;;;;;;6.47;100.00;96291.91;5013914;28;20786;-87
2022/01/03 07:47:58;;;;;;;7.20;1.87;;;;;;;6.44;100.00;96293.03;5030535;28;20136;-88
2022/01/03 07:50:25;;;;;;;10.07;1.10;;;;;;;6.44;100.00;96286.94;5033601;28;20041;-87
2022/01/03 07:52:50;;;;;;;10.17;1.53;;;;;;;6.44;100.00;96285.19;5011512;28;20116;-88
2022/01/03 07:55:16;;;;;;;7.17;1.20;;;;;;;6.44;100.00;96284.34;5040798;28;20136;-88
2022/01/03 07:57:43;;;;;;;6.80;1.17;;;;;;;6.40;100.00;96289.00;5034788;28;20120;-88
2022/01/03 08:00:12;;;;;;;14.63;2.13;;;;;;;6.41;100.00;96284.63;5033935;28;20029;-87
2022/01/03 08:02:41;;;;;;;10.87;1.60;;;;;;;6.38;100.00;96285.72;5012962;28;20045;-89
2022/01/03 08:05:10;;;;;;;12.23;4.63;;;;;;;6.37;100.00;96289.25;5010372;28;20037;-89
2022/01/03 08:07:36;;;;;;;11.60;2.17;;;;;;;6.35;100.00;96289.41;5029076;28;20071;-90
2022/01/03 08:10:05;;;;;;;6.00;1.50;;;;;;;6.37;100.00;96287.50;5033190;28;20029;-89
2022/01/03 08:12:31;;;;;;;8.80;1.60;;;;;;;6.32;100.00;96287.06;5032579;28;20094;-88
2022/01/03 08:15:25;;;;;;;7.50;1.30;;;;;;;6.38;100.00;96289.16;5030269;28;20116;-89
2022/01/03 08:18:33;;;;;;;7.10;1.87;;;;;;;6.43;100.00;96291.34;4986268;28;20054;-89
2022/01/03 08:21:49;;;;;;;7.63;1.40;;;;;;;6.43;100.00;96293.13;4984497;28;20113;-90
2022/01/03 08:24:15;;;;;;;13.23;2.20;;;;;;;6.46;100.00;96300.72;4974459;28;20044;-89
2022/01/03 08:26:43;;;;;;;7.83;1.60;;;;;;;6.46;100.00;96298.91;4996505;28;20038;-89
2022/01/03 08:29:37;;;;;;;11.30;1.90;;;;;;;6.44;100.00;96292.16;4984165;28;20041;-89
2022/01/03 08:32:29;;;;;;;8.67;1.30;;;;;;;6.48;100.00;96299.63;4970826;28;20046;-89
2022/01/03 08:35:27;;;;;;;9.27;1.40;;;;;;;6.55;100.00;96297.31;4976579;28;20046;-88
2022/01/03 08:37:54;;;;;;;7.47;2.00;;;;;;;6.50;100.00;96299.47;4976312;28;20039;-88
2022/01/03 08:40:22;;;;;;;11.97;3.03;;;;;;;6.50;100.00;96294.25;5037949;28;20273;-89
2022/01/03 08:42:48;;;;;;;8.67;1.57;;;;;;;6.51;100.00;96299.38;5029341;28;20033;-88
2022/01/03 08:45:14;;;;;;;8.03;1.27;;;;;;;6.51;100.00;96303.78;5033209;28;20384;-89
2022/01/03 08:47:41;;;;;;;11.50;1.90;;;;;;;6.51;100.00;96290.72;5016769;28;20044;-89
2022/01/03 08:50:10;;;;;;;6.07;1.60;;;;;;;6.53;100.00;96297.44;5042771;28;20037;-89
2022/01/03 08:52:36;;;;;;;8.13;1.97;;;;;;;6.50;100.00;96305.53;5027693;28;20043;-89
2022/01/03 08:55:03;;;;;;;8.90;1.20;;;;;;;6.52;100.00;96297.59;5012126;28;20033;-88
2022/01/03 08:57:29;;;;;;;8.97;1.93;;;;;;;6.48;100.00;96294.41;5024024;28;20144;-88
2022/01/03 08:59:55;;;;;;;5.83;1.37;;;;;;;6.46;100.00;96296.31;5033045;28;20172;-88
2022/01/03 09:02:21;;;;;;;8.67;1.87;;;;;;;6.50;100.00;96299.47;5011734;28;20129;-88
2022/01/03 09:04:47;;;;;;;6.77;1.30;;;;;;;6.49;100.00;96300.44;5000907;28;20515;-89
2022/01/03 09:07:14;;;;;;;12.93;2.20;;;;;;;6.48;100.00;96301.41;5012958;28;20116;-87
2022/01/03 09:09:40;;;;;;;8.87;1.40;;;;;;;6.47;100.00;96299.75;5021617;28;20041;-88
2022/01/03 09:12:07;;;;;;;6.50;1.80;;;;;;;6.43;100.00;96304.41;5019212;28;20043;-88
2022/01/03 09:14:35;;;;;;;7.27;2.07;;;;;;;6.41;100.00;96303.72;4993927;28;20034;-88
2022/01/03 09:17:01;;;;;;;8.60;2.07;;;;;;;6.40;100.00;96309.91;4993834;28;20039;-88
2022/01/03 09:19:28;;;;;;;8.57;1.60;;;;;;;6.41;100.00;96305.53;5012383;28;20030;-88
2022/01/03 09:22:16;;;;;;;12.03;1.90;;;;;;;6.42;100.00;96294.94;5012602;28;20033;-88
2022/01/03 09:30:32;;;;;;;14.50;2.00;;;;;;;6.52;100.00;96281.91;5031824;28;20033;-88
2022/01/03 09:33:01;;;;;;;10.20;1.83;;;;;;;6.52;100.00;96274.06;5026583;28;20044;-90
2022/01/03 09:36:05;;;;;;;12.93;2.53;;;;;;;6.61;100.00;96286.34;5015196;28;20049;-89
2022/01/03 09:38:30;;;;;;;15.30;2.03;;;;;;;6.61;100.00;96275.88;5006964;28;20036;-89
2022/01/03 09:41:02;;;;;;;7.97;1.57;;;;;;;6.62;100.00;96274.91;5028615;28;20034;-88
2022/01/03 09:43:28;;;;;;;9.40;2.73;;;;;;;6.61;100.00;96265.44;5026644;28;20557;-88
2022/01/03 09:45:54;;;;;;;14.93;2.93;;;;;;;6.63;100.00;96268.72;5039561;28;20032;-88
2022/01/03 09:48:22;;;;;;;9.00;2.10;;;;;;;6.76;100.00;96258.84;5035180;28;20037;-88
2022/01/03 09:50:49;;;;;;;12.43;1.87;;;;;;;6.91;100.00;96259.31;5011731;28;20034;-88
2022/01/03 09:53:19;;;;;;;11.00;1.87;;;;;;;6.94;100.00;96253.81;5025921;28;20033;-89
2022/01/03 09:55:48;;;;;;;10.30;2.77;;;;;;;6.98;100.00;96255.19;5028780;28;20049;-89
2022/01/03 09:58:22;;;;;;;12.17;2.23;;;;;;;6.99;100.00;96256.81;5016835;28;20068;-88
2022/01/03 10:01:42;;;;;;;6.73;1.50;;;;;;;6.99;100.00;96243.75;5018956;28;20029;-89
2022/01/03 10:05:24;;;;;;;9.73;2.47;;;;;;;7.08;100.00;96244.72;5028085;28;20163;-88
2022/01/03 10:08:02;;;;;;;13.87;2.33;;;;;;;7.12;100.00;96246.09;5032290;28;20040;-87
2022/01/03 10:11:12;;;;;;;14.77;2.53;;;;;;;7.13;100.00;96237.28;5007028;28;20534;-88
2022/01/03 10:13:49;;;;;;;9.07;2.33;;;;;;;7.20;100.00;96241.00;5006725;28;20065;-89
2022/01/03 10:16:15;;;;;;;13.80;3.57;;;;;;;7.23;100.00;96242.50;5033960;28;20021;-88
2022/01/03 10:18:41;;;;;;;12.37;3.83;;;;;;;7.24;100.00;96236.31;5028998;28;20660;-89
2022/01/03 10:21:38;;;;;;;11.87;3.80;;;;;;;7.30;100.00;96239.19;5030856;28;20041;-88
2022/01/03 10:25:01;;;;;;;8.27;2.20;;;;;;;7.39;100.00;96229.69;5042035;28;20049;-89
2022/01/03 10:27:49;;;;;;;7.67;1.87;;;;;;;7.56;100.00;96238.63;4999168;28;20550;-87
2022/01/03 10:30:46;;;;;;;9.10;2.43;;;;;;;7.54;100.00;96235.31;5033483;28;20042;-87
2022/01/03 10:33:17;;;;;;;7.40;2.07;;;;;;;7.57;100.00;96240.25;5032563;28;20104;-87
2022/01/03 10:35:48;;;;;;;6.83;1.87;;;;;;;7.60;100.00;96231.31;5026460;28;20068;-87
2022/01/03 10:38:37;;;;;;;6.43;1.50;;;;;;;7.62;100.00;96243.31;5029464;28;20037;-87
2022/01/03 10:41:17;;;;;;;9.57;1.97;;;;;;;7.64;100.00;96241.34;5025903;28;20112;-87
2022/01/03 10:43:50;;;;;;;13.73;3.07;;;;;;;7.69;100.00;96233.91;5034997;28;20048;-86
2022/01/03 10:46:25;;;;;;;6.93;1.88;;;;;;;7.71;100.00;96234.63;5032388;28;20052;-87
2022/01/03 10:48:55;;;;;;;12.40;3.03;;;;;;;7.71;100.00;96234.63;5011773;28;20045;-87
2022/01/03 10:51:30;;;;;;;10.37;1.90;;;;;;;7.76;100.00;96229.75;5011152;28;20110;-87
2022/01/03 10:53:57;;;;;;;19.10;4.10;;;;;;;7.78;100.00;96222.59;5006664;28;20038;-87
2022/01/03 10:56:24;;;;;;;6.20;1.90;;;;;;;7.85;100.00;96222.03;5038979;28;20040;-87
2022/01/03 10:58:54;;;;;;;9.13;2.23;;;;;;;7.85;100.00;96220.25;5035764;28;20037;-86
2022/01/03 11:01:26;;;;;;;7.73;1.80;;;;;;;7.86;100.00;96223.69;5044147;28;20045;-87
2022/01/03 11:03:55;;;;;;;;;;;;;;;7.90;100.00;96227.66;5051428;28;20081;-87
2022/01/03 11:07:01;;;;;;;9.27;2.07;;;;;;;7.89;100.00;96226.03;5037048;28;19897;-86
2022/01/03 11:12:19;;;;;;;6.93;1.67;;;;;;;7.92;100.00;96215.25;5029137;28;20018;-86
2022/01/03 11:14:45;;;;;;;9.65;2.38;;;;;;;7.93;100.00;96216.91;5045936;28;20040;-86
2022/01/03 11:17:34;;;;;;;8.37;1.90;;;;;;;8.00;100.00;96212.75;5006549;28;20781;-85
2022/01/03 11:20:00;;;;;;;10.77;2.87;;;;;;;7.99;100.00;96221.56;5029254;28;20607;-86
2022/01/03 11:22:44;;;;;;;13.33;4.07;;;;;;;7.95;100.00;96210.56;5016509;28;20036;-86
2022/01/03 11:25:29;;;;;;;7.13;1.80;;;;;;;7.97;100.00;96205.97;5031669;28;20033;-86
2022/01/03 11:27:55;;;;;;;10.13;2.13;;;;;;;8.03;100.00;96209.84;5027115;28;20051;-86
2022/01/03 11:30:22;;;;;;;10.90;1.67;;;;;;;8.01;100.00;96198.66;5035540;28;20739;-87
2022/01/03 11:32:50;;;;;;;7.53;2.17;;;;;;;8.03;100.00;96194.13;5037537;28;20510;-86
2022/01/03 11:35:16;;;;;;;8.57;2.80;;;;;;;8.02;100.00;96188.06;5041290;28;20029;-86
2022/01/03 11:37:45;;;;;;;9.83;2.37;;;;;;;8.07;100.00;96177.13;5007351;28;20048;-86
2022/01/03 11:40:13;;;;;;;11.80;1.83;;;;;;;8.12;100.00;96180.16;5031677;28;20040;-85
2022/01/03 11:42:42;;;;;;;8.83;1.47;;;;;;;8.12;100.00;96172.31;5010910;28;20041;-86
2022/01/03 11:45:10;;;;;;;10.90;1.50;;;;;;;8.15;100.00;96174.63;5039999;28;20036;-85
2022/01/03 11:47:37;;;;;;;8.97;2.07;;;;;;;8.20;100.00;96155.84;5022441;28;20033;-86
2022/01/03 11:50:08;;;;;;;8.53;2.33;;;;;;;8.20;100.00;96166.31;5014562;28;20041;-86
2022/01/03 11:52:52;;;;;;;4.77;1.00;;;;;;;8.21;100.00;96155.69;5017995;28;20119;-86
2022/01/03 11:55:18;;;;;;;7.37;1.57;;;;;;;8.24;100.00;96155.41;5032774;28;20112;-85
2022/01/03 12:03:37;;;;;;;6.43;1.37;;;;;;;8.39;100.00;96144.47;5040379;28;20044;-85
2022/01/03 12:06:06;;;;;;;5.32;1.42;;;;;;;8.44;100.00;96143.03;5052176;28;20087;-85
2022/01/03 12:08:35;;;;;;;11.97;1.90;;;;;;;8.54;100.00;96145.59;5016020;28;20183;-86
2022/01/03 12:11:25;;;;;;;7.70;1.97;;;;;;;8.47;100.00;96136.69;5028878;28;20383;-86
2022/01/03 12:14:04;;;;;;;4.37;1.57;;;;;;;8.52;100.00;96141.47;5013366;28;20518;-86
2022/01/03 12:16:52;;;;;;;5.93;1.40;;;;;;;8.58;100.00;96146.94;5030376;28;20107;-86
2022/01/03 12:19:24;;;;;;;6.33;1.30;;;;;;;8.55;100.00;96149.03;5025862;28;20026;-85